Weather History for Buckeye, AZ

Change the Weather History Date:

Saturday, February 15, 2014

  Actual Average (KGYR) Record (KGYR)
Temperature  
Mean Temperature 62 °F -  
Max Temperature 82 °F 67 °F 86 °F (2014)
Min Temperature 42 °F 44 °F 26 °F (2013)
Degree Days  
Heating Degree Days 3    
Growing Degree Days 12 (Base 50)    
Moisture  
Dew Point 30 °F    
Average Humidity 32    
Maximum Humidity 53    
Minimum Humidity 14    
Precipitation  
Precipitation 0.00 in - - ()
Sea Level Pressure  
Sea Level Pressure 29.99 in    
Wind  
Wind Speed 4 mph (NE)    
Max Wind Speed 10 mph    
Max Gust Speed -    
Visibility 10 miles    
Events      
Averages and records for this station are not official NWS values.
T = Trace of Precipitation, MM = Missing Value Source: NWS Daily Summary

Daily Weather History Graph

Daily Weather History Graph

Search for Another Location

Airport:

Trip Planner

Search our weather history database for the weather conditions in past years. The results will help you decide how hot, cold, wet, or windy it might be!

Date:

Astronomy

Feb. 15, 2014 Rise Set
Actual Time 7:14 AM MST 6:15 PM MST
Civil Twilight 6:49 AM MST 6:40 PM MST
Nautical Twilight 6:20 AM MST 7:10 PM MST
Astronomical Twilight 5:51 AM MST 7:38 PM MST
Moon 7:13 PM MST (2/15) 7:19 AM MST (2/15)
Length of Visible Light 11h 51m
Length of Day
11h 00m
Waxing Gibbous, 99% of the Moon is Illuminated
Feb 15
Waxing Gibbous
Feb 22
Last Quarter
Mar 1
New
Mar 8
First Quarter
Mar 16
Full

Hourly Weather History & Observations

Time (MST) Temp. Windchill Dew Point Humidity Pressure Visibility Wind Dir Wind Speed Gust Speed Precip Events Conditions
12:15 AM 53.6 °F - 26.6 °F 35% 30.00 in 10.0 mi North 5.8 mph - N/A   Clear
12:35 AM 53.6 °F - 26.6 °F 35% 30.00 in 10.0 mi NNE 3.5 mph - N/A   Clear
12:55 AM 51.8 °F - 26.6 °F 38% 30.00 in 10.0 mi Calm Calm - N/A   Clear
1:15 AM 50.0 °F - 26.6 °F 40% 30.00 in 10.0 mi NW 3.5 mph - N/A   Clear
1:35 AM 50.0 °F - 28.4 °F 43% 30.00 in 5.0 mi NNW 6.9 mph - N/A   Clear
1:55 AM 48.2 °F - 28.4 °F 46% 30.00 in 10.0 mi NNW 5.8 mph - N/A   Clear
2:15 AM 48.2 °F - 28.4 °F 46% 30.00 in 10.0 mi NW 4.6 mph - N/A   Clear
2:35 AM 48.2 °F - 28.4 °F 46% 29.99 in 10.0 mi NW 4.6 mph - N/A   Clear
2:55 AM 48.2 °F - 28.4 °F 46% 29.99 in 10.0 mi North 4.6 mph - N/A   Clear
3:15 AM 48.2 °F - 28.4 °F 46% 29.99 in 10.0 mi NNW 4.6 mph - N/A   Clear
3:35 AM 48.2 °F - 28.4 °F 46% 29.98 in 10.0 mi North 6.9 mph - N/A   Clear
3:55 AM 46.4 °F 44.3 °F 26.6 °F 46% 29.98 in 10.0 mi North 4.6 mph - N/A   Clear
4:15 AM 46.4 °F 44.3 °F 26.6 °F 46% 29.99 in 10.0 mi North 4.6 mph - N/A   Clear
4:35 AM 46.4 °F 43.5 °F 26.6 °F 46% 29.99 in 10.0 mi North 5.8 mph - N/A   Clear
4:55 AM 46.4 °F - 26.6 °F 46% 29.99 in 10.0 mi Calm Calm - N/A   Clear
5:15 AM 44.6 °F - 26.6 °F 49% 29.99 in 10.0 mi Calm Calm - N/A   Clear
5:35 AM 44.6 °F 43.1 °F 26.6 °F 49% 29.99 in 10.0 mi North 3.5 mph - N/A   Clear
5:55 AM 42.8 °F 41.1 °F 26.6 °F 53% 30.00 in 10.0 mi NW 3.5 mph - N/A   Clear
6:15 AM 44.6 °F 40.7 °F 26.6 °F 49% 30.00 in 8.0 mi NNW 6.9 mph - N/A   Clear
6:35 AM 44.6 °F 41.4 °F 26.6 °F 49% 30.00 in 10.0 mi North 5.8 mph - N/A   Clear
6:55 AM 44.6 °F 41.4 °F 26.6 °F 49% 30.02 in 10.0 mi North 5.8 mph - N/A   Clear
7:15 AM 44.6 °F 40.7 °F 26.6 °F 49% 30.02 in 10.0 mi NNE 6.9 mph - N/A   Clear
7:35 AM 44.6 °F 40.7 °F 26.6 °F 49% 30.02 in 10.0 mi North 6.9 mph - N/A   Clear
7:55 AM 46.4 °F - 28.4 °F 50% 30.02 in 10.0 mi Calm Calm - N/A   Clear
8:15 AM 48.2 °F - 28.4 °F 46% 30.03 in 10.0 mi NW 3.5 mph - N/A   Clear
8:35 AM 51.8 °F - 28.4 °F 41% 30.03 in 10.0 mi Calm Calm - N/A   Clear
8:55 AM 55.4 °F - 32.0 °F 41% 30.04 in 10.0 mi Calm Calm - N/A   Clear
9:15 AM 55.4 °F - 35.6 °F 47% 30.03 in 10.0 mi Calm Calm - N/A   Clear
9:35 AM 59.0 °F - 37.4 °F 45% 30.04 in 10.0 mi WSW 3.5 mph - N/A   Clear
9:55 AM 62.6 °F - 39.2 °F 42% 30.05 in 10.0 mi WSW 3.5 mph - N/A   Clear
10:15 AM 68.0 °F - 35.6 °F 30% 30.04 in 10.0 mi ESE 10.4 mph - N/A   Clear
10:35 AM 71.6 °F - 35.6 °F 27% 30.04 in 10.0 mi East 10.4 mph - N/A   Clear
10:55 AM 71.6 °F - 32.0 °F 23% 30.05 in 10.0 mi East 10.4 mph - N/A   Clear
11:15 AM 73.4 °F - 32.0 °F 22% 30.05 in 10.0 mi East 10.4 mph - N/A   Clear
11:35 AM 73.4 °F - 33.8 °F 23% 30.05 in 10.0 mi ESE 9.2 mph - N/A   Clear
11:55 AM 75.2 °F - 32.0 °F 21% 30.05 in 10.0 mi ESE 6.9 mph - N/A   Clear
12:15 PM 77.0 °F - 35.6 °F 22% 30.04 in 10.0 mi East 6.9 mph - N/A   Clear
12:35 PM 77.0 °F - 35.6 °F 22% 30.03 in 10.0 mi ESE 8.1 mph - N/A   Clear
12:55 PM 77.0 °F - 35.6 °F 22% 30.02 in 10.0 mi ESE 6.9 mph - N/A   Clear
1:15 PM 78.8 °F - 35.6 °F 21% 30.01 in 10.0 mi SE 8.1 mph - N/A   Clear
1:35 PM 78.8 °F - 35.6 °F 21% 30.00 in 10.0 mi SE 5.8 mph - N/A   Clear
1:55 PM 80.6 °F - 35.6 °F 20% 29.99 in 10.0 mi ESE 5.8 mph - N/A   Clear
2:15 PM 80.6 °F - 33.8 °F 18% 29.98 in 10.0 mi SE 5.8 mph - N/A   Clear
2:35 PM 80.6 °F - 35.6 °F 20% 29.98 in 10.0 mi ESE 4.6 mph - N/A   Clear
2:55 PM 80.6 °F - 32.0 °F 17% 29.98 in 10.0 mi SSW 3.5 mph - N/A   Clear
3:15 PM 82.4 °F - 32.0 °F 16% 29.97 in 10.0 mi Calm Calm - N/A   Clear
3:35 PM 82.4 °F - 35.6 °F 19% 29.96 in 10.0 mi SSE 4.6 mph - N/A   Clear
3:55 PM 82.4 °F - 28.4 °F 14% 29.96 in 10.0 mi SSW 3.5 mph - N/A   Clear
4:15 PM 82.4 °F - 28.4 °F 14% 29.96 in 10.0 mi SW 3.5 mph - N/A   Clear
4:35 PM 82.4 °F - 28.4 °F 14% 29.95 in 10.0 mi Calm Calm - N/A   Clear
4:55 PM 82.4 °F - 32.0 °F 16% 29.94 in 10.0 mi Calm Calm - N/A   Clear
5:15 PM 82.4 °F - 32.0 °F 16% 29.94 in 9.0 mi Calm Calm - N/A   Clear
5:35 PM 80.6 °F - 32.0 °F 17% 29.94 in 9.0 mi SSE 3.5 mph - N/A   Clear
5:55 PM 77.0 °F - 37.4 °F 24% 29.95 in 9.0 mi Calm Calm - N/A   Clear
6:15 PM 75.2 °F - 35.6 °F 24% 29.95 in 9.0 mi Calm Calm - N/A   Clear
6:35 PM 73.4 °F - 35.6 °F 25% 29.95 in 10.0 mi Calm Calm - N/A   Clear
6:55 PM 71.6 °F - 32.0 °F 23% 29.96 in 10.0 mi Calm Calm - N/A   Partly Cloudy
7:15 PM 68.0 °F - 32.0 °F 26% 29.96 in 10.0 mi ENE 3.5 mph - N/A   Partly Cloudy
7:35 PM 66.2 °F - 32.0 °F 28% 29.96 in 10.0 mi NE 3.5 mph - N/A   Partly Cloudy
7:55 PM 66.2 °F - 30.2 °F 26% 29.95 in 10.0 mi NE 5.8 mph - N/A   Clear
8:15 PM 64.4 °F - 28.4 °F 26% 29.96 in 10.0 mi NNE 5.8 mph - N/A   Scattered Clouds
8:35 PM 64.4 °F - 28.4 °F 26% 29.96 in 10.0 mi ENE 3.5 mph - N/A   Mostly Cloudy
8:55 PM 62.6 °F - 32.0 °F 32% 29.96 in 10.0 mi NE 5.8 mph - N/A   Mostly Cloudy
9:15 PM 60.8 °F - 28.4 °F 29% 29.96 in 10.0 mi NE 8.1 mph - N/A   Partly Cloudy
9:35 PM 60.8 °F - 26.6 °F 27% 29.97 in 10.0 mi NE 6.9 mph - N/A   Clear
9:55 PM 62.6 °F - 26.6 °F 26% 29.97 in 10.0 mi NE 5.8 mph - N/A   Partly Cloudy
10:15 PM 59.0 °F - 26.6 °F 29% 29.97 in 10.0 mi NNE 5.8 mph - N/A   Clear
10:35 PM 60.8 °F - 26.6 °F 27% 29.97 in 10.0 mi NE 5.8 mph - N/A   Partly Cloudy
10:55 PM 59.0 °F - 26.6 °F 29% 29.97 in 10.0 mi NNE 5.8 mph - N/A   Partly Cloudy
11:15 PM 57.2 °F - 26.6 °F 31% 29.97 in 10.0 mi North 4.6 mph - N/A   Clear
11:35 PM 57.2 °F - 26.6 °F 31% 29.97 in 10.0 mi Calm Calm - N/A   Clear
11:55 PM 57.2 °F - 28.4 °F 33% 29.97 in 10.0 mi North 4.6 mph - N/A   Scattered Clouds